sim
Sign-in with your pilot id or email,
or register
Callsign
Passwort

Schedule Details

Flight Number: DLH2171
Departure: Leipzig Halle Airport (EDDP) at 19:25
Arrival: Munich Airport (EDDM) at 20:25
Route: Lufthansa Passenger Schedule. Enter filed route here before submitting Pirep.

Weather Information
Getting current METAR information for EDDP 241050Z 26014KT 9999 FEW040 21/11 Q1006 TEMPO 26015G25KT
Getting current METAR information for EDDM 241050Z 27005KT 220V300 9999 FEW026 20/13 Q1010 NOSIG

Schedule Frequency

Route Map